createdAt,value
2023-03-12T00:01:19.551Z,73.01
2023-03-12T00:03:48.742Z,74.26
2023-03-12T00:06:19.720Z,74.96
2023-03-12T00:08:48.647Z,77.04
2023-03-12T00:11:19.651Z,78.03
2023-03-12T00:13:51.775Z,78.00
2023-03-12T00:16:20.700Z,78.94
2023-03-12T00:18:51.058Z,78.85
2023-03-12T00:21:22.459Z,79.09
2023-03-12T00:23:51.568Z,79.42
2023-03-12T00:26:22.252Z,79.91
2023-03-12T00:28:51.932Z,79.65
2023-03-12T00:31:23.086Z,80.02
2023-03-12T00:33:51.799Z,80.24
2023-03-12T00:36:25.014Z,79.93
2023-03-12T00:38:53.991Z,80.22
2023-03-12T00:41:23.708Z,80.11
2023-03-12T00:43:53.477Z,80.65
2023-03-12T00:46:23.034Z,80.20
2023-03-12T00:48:52.102Z,80.05
2023-03-12T00:51:22.245Z,79.46
2023-03-12T00:53:50.867Z,79.73
2023-03-12T00:56:19.266Z,80.15
2023-03-12T00:58:47.776Z,78.55
2023-03-12T01:01:16.567Z,79.19
2023-03-12T01:03:46.067Z,79.64
2023-03-12T01:06:14.798Z,79.36
2023-03-12T01:08:45.243Z,80.04
2023-03-12T01:11:15.893Z,80.43
2023-03-12T01:13:45.113Z,80.50
2023-03-12T01:16:14.144Z,79.64
2023-03-12T01:18:42.831Z,79.66
2023-03-12T01:21:11.611Z,80.50
2023-03-12T01:23:40.263Z,80.16
2023-03-12T01:26:10.188Z,80.50
2023-03-12T01:28:38.586Z,80.67
2023-03-12T01:31:10.660Z,81.30
2023-03-12T01:33:39.369Z,81.41
2023-03-12T01:36:17.388Z,81.64
2023-03-12T01:38:45.864Z,82.24
2023-03-12T01:41:15.779Z,82.62
2023-03-12T01:43:44.483Z,82.31
2023-03-12T01:46:28.531Z,81.79
2023-03-12T01:49:03.466Z,82.06
2023-03-12T01:51:37.511Z,82.21
2023-03-12T01:54:11.983Z,82.90
2023-03-12T01:56:42.911Z,82.80
2023-03-12T01:59:17.294Z,82.63
2023-03-12T02:01:46.737Z,83.16
2023-03-12T02:04:17.668Z,83.37
2023-03-12T02:06:51.039Z,83.73
2023-03-12T02:09:21.617Z,83.91
2023-03-12T02:11:52.103Z,83.75
2023-03-12T02:14:21.981Z,83.65
2023-03-12T02:16:50.611Z,83.48
2023-03-12T02:19:31.570Z,83.67
2023-03-12T02:22:00.777Z,83.32
2023-03-12T02:24:35.565Z,83.46
2023-03-12T02:27:07.457Z,83.53
2023-03-12T02:29:40.582Z,82.66
2023-03-12T02:32:17.191Z,83.01
2023-03-12T02:34:48.095Z,82.06
2023-03-12T02:37:16.608Z,82.38
2023-03-12T02:39:51.662Z,82.49
2023-03-12T02:42:21.850Z,81.85
2023-03-12T02:44:50.757Z,82.07
2023-03-12T02:47:19.424Z,81.76
2023-03-12T02:49:47.806Z,81.96
2023-03-12T02:52:16.261Z,81.13
2023-03-12T02:54:44.799Z,81.72
2023-03-12T02:57:13.795Z,81.75
2023-03-12T02:59:43.593Z,81.85
2023-03-12T03:02:13.069Z,81.43
2023-03-12T03:04:41.787Z,81.89
2023-03-12T03:07:10.273Z,81.97
2023-03-12T03:09:38.751Z,82.74
2023-03-12T03:12:07.829Z,82.89
2023-03-12T03:14:37.712Z,82.45
2023-03-12T03:17:07.603Z,83.24
2023-03-12T03:19:36.061Z,83.46
2023-03-12T03:22:05.505Z,83.68
2023-03-12T03:24:33.892Z,84.22
2023-03-12T03:27:02.309Z,83.72
2023-03-12T03:29:30.750Z,84.07
2023-03-12T03:32:00.775Z,84.14
2023-03-12T03:34:30.528Z,84.05
2023-03-12T03:36:59.169Z,83.75
2023-03-12T03:39:29.591Z,84.47
2023-03-12T03:41:58.549Z,83.86
2023-03-12T03:44:28.269Z,83.13
2023-03-12T03:46:56.739Z,83.96
2023-03-12T03:49:25.506Z,83.80
2023-03-12T03:51:55.356Z,83.74
2023-03-12T03:54:33.946Z,84.41
2023-03-12T03:57:02.678Z,84.47
2023-03-12T03:59:31.190Z,83.81
2023-03-12T04:01:59.688Z,83.96
2023-03-12T04:04:28.718Z,83.77
2023-03-12T04:06:58.827Z,83.78
2023-03-12T04:09:27.553Z,84.45
2023-03-12T04:11:55.974Z,84.73
2023-03-12T04:14:24.379Z,84.06
2023-03-12T04:16:52.808Z,84.51
2023-03-12T04:19:21.291Z,84.73
2023-03-12T04:21:49.870Z,84.40
2023-03-12T04:24:20.752Z,84.10
2023-03-12T04:26:51.707Z,83.89
2023-03-12T04:29:20.359Z,83.99
2023-03-12T04:31:48.933Z,83.54
2023-03-12T04:34:17.421Z,81.85
2023-03-12T04:36:48.948Z,81.83
2023-03-12T04:39:20.994Z,82.29
2023-03-12T04:41:51.920Z,82.79
2023-03-12T04:44:20.460Z,82.49
2023-03-12T04:46:48.894Z,82.14
2023-03-12T04:49:21.018Z,81.37
2023-03-12T04:51:49.567Z,81.31
2023-03-12T04:54:21.037Z,81.06
2023-03-12T04:56:50.460Z,81.41
2023-03-12T04:59:21.088Z,81.60
2023-03-12T05:01:49.907Z,81.93
2023-03-12T05:04:22.778Z,82.27
2023-03-12T05:06:51.975Z,82.42
2023-03-12T05:09:21.943Z,82.52
2023-03-12T05:11:50.405Z,82.57
2023-03-12T05:14:21.273Z,83.15
2023-03-12T05:16:50.350Z,83.86
2023-03-12T05:19:18.956Z,84.26
2023-03-12T05:21:47.427Z,84.77
2023-03-12T05:24:16.843Z,84.46
2023-03-12T05:26:46.974Z,84.67
2023-03-12T05:29:21.972Z,84.89
2023-03-12T05:31:50.678Z,85.28
2023-03-12T05:34:19.261Z,84.91
2023-03-12T05:36:48.369Z,85.02
2023-03-12T05:39:22.005Z,84.88
2023-03-12T05:41:54.014Z,84.79
2023-03-12T05:44:24.424Z,84.50
2023-03-12T05:46:58.455Z,84.35
2023-03-12T05:49:28.255Z,84.27
2023-03-12T05:51:58.218Z,84.19
2023-03-12T05:54:27.387Z,84.22
2023-03-12T05:56:57.710Z,84.46
2023-03-12T05:59:27.656Z,83.56
2023-03-12T06:01:57.688Z,82.72
2023-03-12T06:04:26.653Z,80.90
2023-03-12T06:06:55.445Z,80.75
2023-03-12T06:09:24.540Z,79.89
2023-03-12T06:11:54.170Z,79.45
2023-03-12T06:14:24.179Z,79.41
2023-03-12T06:16:52.719Z,79.60
2023-03-12T06:19:21.334Z,79.94
2023-03-12T06:21:51.421Z,80.06
2023-03-12T06:24:20.470Z,80.13
2023-03-12T06:26:56.384Z,79.95
2023-03-12T06:29:26.266Z,80.14
2023-03-12T06:31:56.069Z,79.29
2023-03-12T06:34:24.576Z,79.57
2023-03-12T06:36:52.958Z,78.42
2023-03-12T06:39:21.409Z,77.94
2023-03-12T06:41:49.923Z,78.10
2023-03-12T06:44:18.507Z,77.81
2023-03-12T06:46:48.460Z,78.08
2023-03-12T06:49:17.378Z,77.91
2023-03-12T06:51:48.188Z,77.79
2023-03-12T06:54:16.819Z,77.28
2023-03-12T06:56:46.079Z,77.39
2023-03-12T06:59:14.541Z,77.21
2023-03-12T07:01:43.020Z,77.19
2023-03-12T07:04:12.960Z,76.68
2023-03-12T07:06:41.782Z,76.16
2023-03-12T07:09:10.553Z,75.96
2023-03-12T07:11:39.044Z,75.99
2023-03-12T07:14:07.468Z,75.21
2023-03-12T07:16:36.065Z,74.95
2023-03-12T07:19:04.978Z,74.63
2023-03-12T07:21:35.004Z,72.34
2023-03-12T07:24:06.888Z,72.19
2023-03-12T07:26:36.341Z,70.76
2023-03-12T07:29:05.355Z,71.27
2023-03-12T07:31:33.993Z,70.49
2023-03-12T07:34:03.288Z,70.04
2023-03-12T07:36:32.197Z,69.86
2023-03-12T07:39:02.544Z,69.93
2023-03-12T07:41:31.195Z,69.68
2023-03-12T07:44:00.029Z,70.34
2023-03-12T07:46:28.820Z,70.56
2023-03-12T07:48:57.385Z,71.62
2023-03-12T07:51:25.943Z,71.72
2023-03-12T07:53:54.680Z,72.42
2023-03-12T07:56:24.873Z,74.29
2023-03-12T07:58:54.067Z,76.15
2023-03-12T08:01:22.832Z,76.99
2023-03-12T08:03:51.689Z,78.38
2023-03-12T08:06:21.190Z,79.19
2023-03-12T08:08:49.913Z,81.04
2023-03-12T08:11:18.524Z,82.06
2023-03-12T08:13:48.733Z,82.45
2023-03-12T08:16:18.694Z,82.74
2023-03-12T08:18:47.863Z,84.06
2023-03-12T08:21:16.778Z,85.67
2023-03-12T08:23:45.331Z,86.89
2023-03-12T08:26:14.297Z,88.42
2023-03-12T08:28:42.883Z,89.90
2023-03-12T08:32:03.686Z,90.80
2023-03-12T08:34:37.778Z,92.42
2023-03-12T08:37:10.685Z,93.32
2023-03-12T08:39:39.250Z,93.26
2023-03-12T08:42:08.100Z,93.96
2023-03-12T08:44:36.767Z,94.21
2023-03-12T08:47:09.104Z,95.15
2023-03-12T08:49:37.552Z,95.71
2023-03-12T08:52:06.716Z,97.29
2023-03-12T08:54:35.190Z,97.02
2023-03-12T08:57:03.810Z,97.75
2023-03-12T08:59:32.381Z,98.60
2023-03-12T09:02:01.450Z,100.00
2023-03-12T09:04:31.429Z,100.00
2023-03-12T09:07:01.847Z,100.00
2023-03-12T09:09:30.351Z,100.00
2023-03-12T09:11:59.203Z,100.00
2023-03-12T09:15:01.636Z,100.00
2023-03-12T09:17:16.138Z,100.00
2023-03-12T09:19:46.056Z,100.00
2023-03-12T09:22:14.503Z,100.00
2023-03-12T09:24:42.979Z,100.00
2023-03-12T09:27:11.644Z,100.00
2023-03-12T09:29:57.073Z,100.00
2023-03-12T09:32:28.402Z,100.00
2023-03-12T09:34:58.353Z,100.00
2023-03-12T09:37:26.916Z,100.00
2023-03-12T09:39:55.774Z,100.00
2023-03-12T09:42:27.529Z,100.00
2023-03-12T09:44:58.612Z,100.00
2023-03-12T09:47:30.952Z,100.00
2023-03-12T09:50:09.415Z,100.00
2023-03-12T09:52:52.966Z,100.00
2023-03-12T09:55:23.300Z,100.00
2023-03-12T09:57:53.593Z,100.00
2023-03-12T10:00:25.553Z,100.00
2023-03-12T10:03:12.162Z,100.00
2023-03-12T10:05:47.836Z,100.00
2023-03-12T10:08:28.919Z,100.00
2023-03-12T10:11:07.192Z,100.00
2023-03-12T10:13:57.989Z,100.00
2023-03-12T10:16:47.388Z,100.00
2023-03-12T10:19:38.861Z,100.00
2023-03-12T10:22:21.252Z,100.00
2023-03-12T10:25:02.462Z,100.00
2023-03-12T10:27:35.725Z,100.00
2023-03-12T10:30:07.495Z,100.00
2023-03-12T10:32:42.320Z,100.00
2023-03-12T10:35:19.348Z,100.00
2023-03-12T10:37:54.338Z,100.00
2023-03-12T10:40:25.608Z,100.00
2023-03-12T10:42:55.111Z,100.00
2023-03-12T10:45:33.903Z,100.00
2023-03-12T10:48:07.106Z,100.00
2023-03-12T10:50:37.594Z,100.00
2023-03-12T10:53:23.848Z,100.00
2023-03-12T10:56:05.357Z,100.00
2023-03-12T10:58:37.932Z,100.00
2023-03-12T11:01:21.218Z,100.00
2023-03-12T11:03:51.112Z,100.00
2023-03-12T11:06:25.950Z,100.00
2023-03-12T11:09:18.312Z,100.00
2023-03-12T11:11:48.673Z,100.00
2023-03-12T11:14:21.058Z,100.00
2023-03-12T11:16:50.281Z,100.00
2023-03-12T11:19:30.296Z,100.00
2023-03-12T11:22:00.949Z,100.00
2023-03-12T11:24:31.410Z,100.00
2023-03-12T11:27:04.785Z,100.00
2023-03-12T11:29:39.855Z,100.00
2023-03-12T11:32:17.537Z,100.00
2023-03-12T11:34:47.784Z,100.00
2023-03-12T11:37:28.593Z,100.00
2023-03-12T11:40:21.340Z,100.00
2023-03-12T11:43:40.001Z,100.00
2023-03-12T11:46:24.256Z,100.00
2023-03-12T11:49:05.775Z,100.00
2023-03-12T11:51:46.153Z,100.00
2023-03-12T11:55:02.135Z,100.00
2023-03-12T11:57:42.351Z,100.00
2023-03-12T12:00:18.374Z,100.00
2023-03-12T12:03:22.619Z,100.00
2023-03-12T12:06:01.062Z,100.00
2023-03-12T12:08:54.516Z,100.00
2023-03-12T12:11:31.295Z,100.00
2023-03-12T12:14:16.607Z,100.00
2023-03-12T12:17:02.155Z,100.00
2023-03-12T12:19:49.540Z,100.00
2023-03-12T12:22:34.832Z,100.00
2023-03-12T12:25:29.042Z,100.00
2023-03-12T12:28:21.708Z,98.68
2023-03-12T12:31:06.330Z,98.47
2023-03-12T12:33:50.606Z,96.65
2023-03-12T12:36:19.945Z,94.65
2023-03-12T12:38:55.156Z,93.29
2023-03-12T12:41:26.970Z,93.37
2023-03-12T12:44:02.213Z,94.00
2023-03-12T12:46:35.736Z,94.39
2023-03-12T12:49:11.353Z,95.92
2023-03-12T12:51:46.069Z,95.56
2023-03-12T12:54:24.686Z,94.28
2023-03-12T12:56:57.761Z,93.89
2023-03-12T12:59:36.159Z,91.88
2023-03-12T13:02:16.974Z,91.61
2023-03-12T13:04:46.836Z,90.52
2023-03-12T13:07:35.326Z,90.16
2023-03-12T13:10:09.215Z,89.58
2023-03-12T13:12:49.386Z,89.79
2023-03-12T13:15:40.193Z,90.56
2023-03-12T13:18:25.247Z,90.16
2023-03-12T13:21:21.106Z,91.38
2023-03-12T13:23:58.797Z,90.49
2023-03-12T13:26:33.379Z,90.68
2023-03-12T13:29:20.747Z,90.26
2023-03-12T13:31:49.454Z,89.32
2023-03-12T13:34:46.645Z,88.60
2023-03-12T13:37:48.860Z,88.72
2023-03-12T13:41:02.299Z,90.32
2023-03-12T13:43:53.347Z,90.91
2023-03-12T13:46:42.092Z,90.41
2023-03-12T13:49:18.971Z,90.25
2023-03-12T13:52:20.905Z,91.72
2023-03-12T13:54:57.705Z,92.94
2023-03-12T13:57:38.814Z,93.06
2023-03-12T14:00:18.725Z,93.35
2023-03-12T14:02:51.526Z,93.40
2023-03-12T14:05:21.619Z,94.51
2023-03-12T14:08:23.149Z,94.75
2023-03-12T14:11:04.692Z,95.03
2023-03-12T14:14:27.031Z,95.47
2023-03-12T14:16:58.151Z,96.01
2023-03-12T14:19:29.554Z,96.47
2023-03-12T14:22:03.450Z,96.72
2023-03-12T14:24:36.774Z,96.49
2023-03-12T14:27:08.257Z,96.70
2023-03-12T14:29:40.327Z,96.82
2023-03-12T14:32:17.651Z,96.87
2023-03-12T14:34:50.068Z,97.24
2023-03-12T14:37:23.835Z,97.93
2023-03-12T14:39:56.762Z,98.27
2023-03-12T14:42:29.618Z,98.74
2023-03-12T14:45:01.853Z,98.02
2023-03-12T14:47:30.265Z,98.39
2023-03-12T14:49:59.909Z,98.64
2023-03-12T14:52:30.720Z,99.13
2023-03-12T14:55:03.517Z,99.53
2023-03-12T14:57:31.966Z,100.00
2023-03-12T15:00:02.286Z,100.00
2023-03-12T15:02:32.912Z,100.00
2023-03-12T15:05:03.553Z,100.00
2023-03-12T15:07:37.424Z,100.00
2023-03-12T15:10:19.235Z,99.62
2023-03-12T15:12:48.384Z,100.00
2023-03-12T15:15:36.165Z,99.60
2023-03-12T15:18:08.592Z,100.00
2023-03-12T15:20:37.547Z,99.29
2023-03-12T15:23:07.171Z,98.63
2023-03-12T15:25:36.987Z,98.55
2023-03-12T15:28:09.473Z,97.79
2023-03-12T15:30:40.155Z,97.26
2023-03-12T15:33:12.557Z,97.56
2023-03-12T15:35:44.388Z,96.90
2023-03-12T15:38:17.913Z,96.85
2023-03-12T15:40:53.992Z,96.29
2023-03-12T15:43:25.178Z,96.80
2023-03-12T15:46:01.012Z,97.42
2023-03-12T15:48:33.287Z,98.33
2023-03-12T15:51:02.408Z,98.56
2023-03-12T15:53:34.261Z,98.75
2023-03-12T15:56:08.989Z,99.08
2023-03-12T15:58:40.150Z,98.75
2023-03-12T16:01:11.565Z,98.40
2023-03-12T16:03:40.939Z,98.20
2023-03-12T16:06:14.140Z,98.73
2023-03-12T16:08:48.388Z,98.48
2023-03-12T16:11:21.098Z,99.56
2023-03-12T16:13:52.241Z,99.94
2023-03-12T16:16:20.761Z,99.56
2023-03-12T16:18:49.375Z,99.10
2023-03-12T16:21:17.842Z,99.22
2023-03-12T16:23:46.234Z,99.29
2023-03-12T16:26:16.956Z,100.00
2023-03-12T16:28:46.223Z,99.95
2023-03-12T16:31:15.067Z,99.93
2023-03-12T16:33:44.730Z,100.00
2023-03-12T16:36:16.768Z,100.00
2023-03-12T16:38:46.288Z,99.15
2023-03-12T16:41:19.061Z,99.62
2023-03-12T16:43:51.095Z,100.00
2023-03-12T16:46:22.382Z,100.00
2023-03-12T16:48:54.119Z,100.00
2023-03-12T16:51:23.351Z,100.00
2023-03-12T16:54:05.489Z,100.00
2023-03-12T16:56:39.939Z,100.00
2023-03-12T16:59:17.742Z,100.00
2023-03-12T17:01:46.360Z,100.00
2023-03-12T17:04:14.791Z,100.00
2023-03-12T17:06:43.353Z,100.00
2023-03-12T17:09:11.708Z,100.00
2023-03-12T17:11:41.898Z,100.00
2023-03-12T17:14:19.565Z,100.00
2023-03-12T17:16:47.985Z,100.00
2023-03-12T17:19:17.062Z,100.00
2023-03-12T17:21:46.204Z,100.00
2023-03-12T17:24:15.047Z,100.00
2023-03-12T17:26:45.513Z,100.00
2023-03-12T17:29:14.012Z,100.00
2023-03-12T17:31:42.504Z,100.00
2023-03-12T17:34:10.907Z,100.00
2023-03-12T17:36:40.449Z,100.00
2023-03-12T17:39:08.946Z,100.00
2023-03-12T17:41:37.363Z,100.00
2023-03-12T17:44:07.280Z,100.00
2023-03-12T17:46:39.170Z,100.00
2023-03-12T17:49:09.080Z,100.00
2023-03-12T17:51:38.608Z,100.00
2023-03-12T17:54:07.102Z,100.00
2023-03-12T17:56:35.500Z,100.00
2023-03-12T17:59:03.868Z,99.92
2023-03-12T18:01:33.593Z,99.72
2023-03-12T18:04:01.953Z,99.34
2023-03-12T18:06:30.371Z,99.03
2023-03-12T18:08:59.005Z,97.96
2023-03-12T18:11:27.605Z,97.08
2023-03-12T18:13:56.062Z,96.86
2023-03-12T18:16:24.551Z,96.20
2023-03-12T18:18:54.274Z,94.92
2023-03-12T18:21:22.840Z,94.49
2023-03-12T18:23:51.312Z,93.62
2023-03-12T18:26:19.683Z,92.93
2023-03-12T18:28:48.087Z,91.35
2023-03-12T18:31:16.779Z,91.14
2023-03-12T18:33:45.139Z,90.04
2023-03-12T18:36:14.880Z,89.55
2023-03-12T18:38:43.356Z,88.69
2023-03-12T18:41:13.698Z,88.12
2023-03-12T18:43:42.618Z,87.97
2023-03-12T18:46:11.419Z,87.69
2023-03-12T18:48:41.755Z,87.20
2023-03-12T18:51:11.326Z,86.59
2023-03-12T18:53:41.016Z,85.93
2023-03-12T18:56:09.591Z,84.88
2023-03-12T18:58:37.998Z,83.63
2023-03-12T19:01:06.723Z,83.52
2023-03-12T19:03:36.532Z,83.19
2023-03-12T19:06:07.741Z,82.96
2023-03-12T19:08:37.255Z,83.32
2023-03-12T19:11:08.991Z,82.93
2023-03-12T19:13:37.881Z,82.73
2023-03-12T19:16:09.489Z,82.42
2023-03-12T19:18:39.336Z,82.08
2023-03-12T19:21:09.305Z,81.78
2023-03-12T19:23:37.695Z,81.88
2023-03-12T19:26:08.519Z,81.88
2023-03-12T19:28:37.300Z,81.79
2023-03-12T19:31:08.252Z,81.60
2023-03-12T19:33:36.851Z,81.65
2023-03-12T19:36:06.276Z,81.88
2023-03-12T19:38:34.913Z,81.90
2023-03-12T19:41:03.522Z,81.82
2023-03-12T19:43:33.316Z,82.08
2023-03-12T19:46:01.885Z,82.02
2023-03-12T19:48:30.231Z,81.69
2023-03-12T19:50:58.608Z,81.69
2023-03-12T19:53:27.504Z,81.30
2023-03-12T19:55:55.981Z,81.72
2023-03-12T19:58:24.418Z,81.82
2023-03-12T20:00:54.171Z,82.06
2023-03-12T20:03:23.242Z,82.41
2023-03-12T20:05:51.720Z,82.57
2023-03-12T20:08:21.059Z,82.35
2023-03-12T20:10:49.965Z,82.19
2023-03-12T20:13:18.646Z,82.31
2023-03-12T20:15:48.565Z,82.31
2023-03-12T20:18:19.048Z,82.71
2023-03-12T20:20:48.442Z,83.00
2023-03-12T20:23:16.898Z,83.23
2023-03-12T20:25:48.443Z,83.08
2023-03-12T20:28:17.541Z,83.54
2023-03-12T20:30:46.221Z,83.22
2023-03-12T20:33:14.598Z,83.24
2023-03-12T20:35:44.365Z,83.65
2023-03-12T20:38:12.763Z,83.65
2023-03-12T20:40:41.170Z,83.88
2023-03-12T20:43:09.602Z,84.16
2023-03-12T20:45:38.450Z,84.29
2023-03-12T20:48:07.891Z,84.30
2023-03-12T20:50:40.101Z,84.41
2023-03-12T20:53:10.155Z,84.31
2023-03-12T20:55:39.623Z,84.12
2023-03-12T20:58:08.714Z,83.97
2023-03-12T21:00:37.413Z,83.74
2023-03-12T21:03:05.902Z,83.75
2023-03-12T21:05:34.288Z,83.67
2023-03-12T21:08:02.622Z,83.64
2023-03-12T21:10:32.388Z,83.74
2023-03-12T21:13:00.738Z,83.48
2023-03-12T21:15:29.150Z,83.61
2023-03-12T21:17:59.936Z,83.34
2023-03-12T21:20:28.275Z,83.27
2023-03-12T21:22:56.612Z,83.03
2023-03-12T21:25:25.388Z,82.91
2023-03-12T21:27:56.182Z,82.75
2023-03-12T21:30:24.566Z,82.91
2023-03-12T21:32:53.049Z,82.88
2023-03-12T21:35:21.468Z,82.97
2023-03-12T21:37:50.034Z,82.98
2023-03-12T21:40:19.439Z,82.91
2023-03-12T21:42:47.861Z,83.04
2023-03-12T21:45:17.964Z,83.28
2023-03-12T21:47:46.629Z,83.20
2023-03-12T21:50:15.047Z,83.23
2023-03-12T21:52:47.848Z,83.42
2023-03-12T21:55:17.506Z,83.83
2023-03-12T21:57:46.833Z,84.18
2023-03-12T22:00:17.700Z,84.20
2023-03-12T22:02:47.402Z,84.47
2023-03-12T22:05:15.970Z,84.49
2023-03-12T22:07:44.439Z,84.36
2023-03-12T22:10:13.290Z,84.17
2023-03-12T22:12:42.221Z,84.23
2023-03-12T22:15:12.099Z,84.77
2023-03-12T22:17:41.799Z,84.83
2023-03-12T22:20:12.353Z,84.77
2023-03-12T22:22:40.742Z,84.78
2023-03-12T22:25:10.202Z,84.99
2023-03-12T22:27:38.663Z,84.80
2023-03-12T22:30:12.420Z,84.91
2023-03-12T22:32:42.292Z,84.92
2023-03-12T22:35:11.299Z,84.97
2023-03-12T22:37:39.815Z,85.34
2023-03-12T22:40:10.823Z,85.59
2023-03-12T22:42:41.872Z,85.73
2023-03-12T22:45:11.214Z,85.52
2023-03-12T22:47:40.911Z,85.84
2023-03-12T22:50:11.431Z,85.87
2023-03-12T22:52:40.380Z,85.78
2023-03-12T22:55:09.943Z,86.09
2023-03-12T22:57:38.864Z,86.40
2023-03-12T23:00:11.533Z,87.28
2023-03-12T23:02:41.833Z,88.55
2023-03-12T23:05:11.718Z,88.18
2023-03-12T23:07:40.211Z,90.25
2023-03-12T23:10:10.049Z,87.93
2023-03-12T23:12:38.438Z,87.50
2023-03-12T23:15:08.373Z,86.06
2023-03-12T23:17:37.049Z,86.72
2023-03-12T23:20:09.601Z,86.09
2023-03-12T23:22:38.082Z,86.37
2023-03-12T23:25:07.366Z,86.34
2023-03-12T23:27:35.817Z,86.06
2023-03-12T23:30:04.447Z,86.27
2023-03-12T23:32:32.902Z,86.58
2023-03-12T23:35:01.323Z,86.89
2023-03-12T23:37:31.132Z,86.77
2023-03-12T23:39:59.450Z,86.97
2023-03-12T23:42:29.106Z,87.19
2023-03-12T23:44:57.479Z,87.52
2023-03-12T23:47:25.871Z,87.74
2023-03-12T23:49:54.277Z,87.58
2023-03-12T23:52:22.576Z,87.28
2023-03-12T23:54:52.750Z,87.25
2023-03-12T23:57:21.063Z,87.38
2023-03-12T23:59:49.502Z,87.51
